sensor_id;sensor_type;location;lat;lon;timestamp;pressure;altitude;pressure_sealevel;temperature;humidity
35655;BME280;21773;50.010;19.972;2023-05-19T00:00:05;99676.38;;;14.55;65.57
35655;BME280;21773;50.010;19.972;2023-05-19T00:03:13;99676.94;;;14.57;65.59
35655;BME280;21773;50.010;19.972;2023-05-19T00:06:22;99667.97;;;14.56;65.36
35655;BME280;21773;50.010;19.972;2023-05-19T00:09:26;99677.47;;;14.65;64.94
35655;BME280;21773;50.010;19.972;2023-05-19T00:12:30;99674.78;;;14.65;64.84
35655;BME280;21773;50.010;19.972;2023-05-19T00:15:34;99667.47;;;14.66;65.15
35655;BME280;21773;50.010;19.972;2023-05-19T00:18:39;99668.03;;;14.68;65.04
35655;BME280;21773;50.010;19.972;2023-05-19T00:21:42;99660.50;;;14.70;64.73
35655;BME280;21773;50.010;19.972;2023-05-19T00:24:46;99670.06;;;14.72;64.54
35655;BME280;21773;50.010;19.972;2023-05-19T00:27:49;99664.84;;;14.71;64.72
35655;BME280;21773;50.010;19.972;2023-05-19T00:30:54;99658.63;;;14.70;64.52
35655;BME280;21773;50.010;19.972;2023-05-19T00:33:59;99648.22;;;14.67;63.81
35655;BME280;21773;50.010;19.972;2023-05-19T00:37:03;99654.25;;;14.69;64.02
35655;BME280;21773;50.010;19.972;2023-05-19T00:40:08;99645.28;;;14.69;63.44
35655;BME280;21773;50.010;19.972;2023-05-19T00:43:12;99625.63;;;14.55;63.38
35655;BME280;21773;50.010;19.972;2023-05-19T00:46:15;99660.50;;;14.70;63.17
35655;BME280;21773;50.010;19.972;2023-05-19T00:49:20;99651.53;;;14.69;63.53
35655;BME280;21773;50.010;19.972;2023-05-19T00:52:24;99651.53;;;14.69;63.66
35655;BME280;21773;50.010;19.972;2023-05-19T00:55:29;99657.53;;;14.71;63.80
35655;BME280;21773;50.010;19.972;2023-05-19T00:58:35;99640.53;;;14.64;63.97
35655;BME280;21773;50.010;19.972;2023-05-19T01:01:40;99647.16;;;14.68;64.13
35655;BME280;21773;50.010;19.972;2023-05-19T01:04:45;99648.81;;;14.69;63.75
35655;BME280;21773;50.010;19.972;2023-05-19T01:07:48;99627.28;;;14.56;63.85
35655;BME280;21773;50.010;19.972;2023-05-19T01:10:54;99659.44;;;14.71;63.57
35655;BME280;21773;50.010;19.972;2023-05-19T01:13:57;99629.25;;;14.49;63.46
35655;BME280;21773;50.010;19.972;2023-05-19T01:17:06;99668.03;;;14.68;63.65
35655;BME280;21773;50.010;19.972;2023-05-19T01:20:19;99662.63;;;14.68;63.73
35655;BME280;21773;50.010;19.972;2023-05-19T01:23:32;99648.81;;;14.69;63.78
35655;BME280;21773;50.010;19.972;2023-05-19T01:26:59;99650.69;;;14.69;63.68
35655;BME280;21773;50.010;19.972;2023-05-19T01:30:28;99644.44;;;14.68;63.77
35655;BME280;21773;50.010;19.972;2023-05-19T01:33:33;99637.34;;;14.67;63.60
35655;BME280;21773;50.010;19.972;2023-05-19T01:36:40;99641.50;;;14.70;63.39
35655;BME280;21773;50.010;19.972;2023-05-19T01:39:47;99633.59;;;14.68;63.62
35655;BME280;21773;50.010;19.972;2023-05-19T01:42:52;99641.72;;;14.68;63.03
35655;BME280;21773;50.010;19.972;2023-05-19T01:46:01;99628.63;;;14.65;62.65
35655;BME280;21773;50.010;19.972;2023-05-19T01:49:05;99636.91;;;14.70;63.56
35655;BME280;21773;50.010;19.972;2023-05-19T01:52:09;99633.91;;;14.60;63.33
35655;BME280;21773;50.010;19.972;2023-05-19T01:55:13;99638.19;;;14.68;63.42
35655;BME280;21773;50.010;19.972;2023-05-19T01:58:24;99634.06;;;14.65;63.40
35655;BME280;21773;50.010;19.972;2023-05-19T02:01:39;99628.94;;;14.57;63.52
35655;BME280;21773;50.010;19.972;2023-05-19T02:04:50;99635.53;;;14.50;63.67
35655;BME280;21773;50.010;19.972;2023-05-19T02:08:01;99626.06;;;14.52;63.56
35655;BME280;21773;50.010;19.972;2023-05-19T02:11:23;99629.25;;;14.49;63.74
35655;BME280;21773;50.010;19.972;2023-05-19T02:14:31;99619.94;;;14.45;63.87
35655;BME280;21773;50.010;19.972;2023-05-19T02:17:40;99621.81;;;14.45;64.26
35655;BME280;21773;50.010;19.972;2023-05-19T02:20:48;99619.94;;;14.45;64.19
35655;BME280;21773;50.010;19.972;2023-05-19T02:23:52;99607.75;;;14.36;64.25
35655;BME280;21773;50.010;19.972;2023-05-19T02:26:55;99618.88;;;14.46;64.25
35655;BME280;21773;50.010;19.972;2023-05-19T02:29:59;99618.25;;;14.44;64.35
35655;BME280;21773;50.010;19.972;2023-05-19T02:33:04;99621.44;;;14.41;63.96
35655;BME280;21773;50.010;19.972;2023-05-19T02:36:09;99620.16;;;14.44;63.82
35655;BME280;21773;50.010;19.972;2023-05-19T02:39:15;99615.41;;;14.39;64.05
35655;BME280;21773;50.010;19.972;2023-05-19T02:42:18;99617.06;;;14.40;63.89
35655;BME280;21773;50.010;19.972;2023-05-19T02:45:22;99616.06;;;14.35;63.56
35655;BME280;21773;50.010;19.972;2023-05-19T02:48:27;99617.34;;;14.32;64.00
35655;BME280;21773;50.010;19.972;2023-05-19T02:51:30;99619.25;;;14.31;64.07
35655;BME280;21773;50.010;19.972;2023-05-19T02:54:33;99612.38;;;14.29;63.99
35655;BME280;21773;50.010;19.972;2023-05-19T02:57:37;99626.78;;;14.29;64.20
35655;BME280;21773;50.010;19.972;2023-05-19T03:00:40;99612.44;;;14.22;64.50
35655;BME280;21773;50.010;19.972;2023-05-19T03:03:46;99620.28;;;14.30;64.70
35655;BME280;21773;50.010;19.972;2023-05-19T03:06:50;99622.63;;;14.27;64.70
35655;BME280;21773;50.010;19.972;2023-05-19T03:09:55;99606.66;;;14.19;65.27
35655;BME280;21773;50.010;19.972;2023-05-19T03:12:58;99623.22;;;14.29;65.12
35655;BME280;21773;50.010;19.972;2023-05-19T03:16:01;99615.09;;;14.29;65.38
35655;BME280;21773;50.010;19.972;2023-05-19T03:19:07;99625.94;;;14.29;65.20
35655;BME280;21773;50.010;19.972;2023-05-19T03:22:10;99621.56;;;14.28;65.52
35655;BME280;21773;50.010;19.972;2023-05-19T03:25:14;99619.81;;;14.33;65.79
35655;BME280;21773;50.010;19.972;2023-05-19T03:28:18;99620.63;;;14.41;65.87
35655;BME280;21773;50.010;19.972;2023-05-19T03:31:21;99619.53;;;14.42;65.63
35655;BME280;21773;50.010;19.972;2023-05-19T03:34:26;99613.06;;;14.43;65.33
35655;BME280;21773;50.010;19.972;2023-05-19T03:37:31;99609.28;;;14.44;65.93
35655;BME280;21773;50.010;19.972;2023-05-19T03:40:34;99611.69;;;14.52;65.36
35655;BME280;21773;50.010;19.972;2023-05-19T03:43:43;99616.88;;;14.53;64.90
35655;BME280;21773;50.010;19.972;2023-05-19T03:46:47;99620.44;;;14.54;65.01
35655;BME280;21773;50.010;19.972;2023-05-19T03:50:12;99614.53;;;14.57;64.88
35655;BME280;21773;50.010;19.972;2023-05-19T03:53:27;99622.22;;;14.60;64.90
35655;BME280;21773;50.010;19.972;2023-05-19T03:56:31;99628.50;;;14.60;64.52
35655;BME280;21773;50.010;19.972;2023-05-19T03:59:35;99622.09;;;14.55;64.56
35655;BME280;21773;50.010;19.972;2023-05-19T04:02:38;99616.31;;;14.51;64.60
35655;BME280;21773;50.010;19.972;2023-05-19T04:05:43;99628.84;;;14.64;64.70
35655;BME280;21773;50.010;19.972;2023-05-19T04:08:47;99632.41;;;14.64;64.69
35655;BME280;21773;50.010;19.972;2023-05-19T04:11:50;99625.53;;;14.62;64.98
35655;BME280;21773;50.010;19.972;2023-05-19T04:14:53;99634.66;;;14.67;65.07
35655;BME280;21773;50.010;19.972;2023-05-19T04:17:58;99628.16;;;14.68;65.17
35655;BME280;21773;50.010;19.972;2023-05-19T04:21:03;99631.00;;;14.73;64.80
35655;BME280;21773;50.010;19.972;2023-05-19T04:24:09;99626.19;;;14.76;64.95
35655;BME280;21773;50.010;19.972;2023-05-19T04:27:12;99638.00;;;14.81;65.17
35655;BME280;21773;50.010;19.972;2023-05-19T04:30:16;99623.50;;;14.87;65.33
35655;BME280;21773;50.010;19.972;2023-05-19T04:33:24;99624.09;;;14.89;65.25
35655;BME280;21773;50.010;19.972;2023-05-19T04:36:31;99629.28;;;14.79;64.84
35655;BME280;21773;50.010;19.972;2023-05-19T04:39:36;99624.28;;;14.76;64.99
35655;BME280;21773;50.010;19.972;2023-05-19T04:42:44;99630.31;;;14.78;65.42
35655;BME280;21773;50.010;19.972;2023-05-19T04:45:51;99625.38;;;14.87;65.62
35655;BME280;21773;50.010;19.972;2023-05-19T04:48:55;99623.97;;;14.84;65.36
35655;BME280;21773;50.010;19.972;2023-05-19T04:52:04;99627.19;;;14.93;65.06
35655;BME280;21773;50.010;19.972;2023-05-19T04:55:08;99623.53;;;14.99;64.90
35655;BME280;21773;50.010;19.972;2023-05-19T04:58:15;99616.22;;;14.99;65.11
35655;BME280;21773;50.010;19.972;2023-05-19T05:01:21;99618.00;;;15.05;64.91
35655;BME280;21773;50.010;19.972;2023-05-19T05:04:28;99613.38;;;15.06;65.18
35655;BME280;21773;50.010;19.972;2023-05-19T05:07:34;99624.28;;;15.17;64.74
35655;BME280;21773;50.010;19.972;2023-05-19T05:10:37;99623.91;;;15.02;64.80
35655;BME280;21773;50.010;19.972;2023-05-19T05:13:41;99621.13;;;14.91;65.14
35655;BME280;21773;50.010;19.972;2023-05-19T05:16:45;99625.78;;;15.02;65.66
35655;BME280;21773;50.010;19.972;2023-05-19T05:19:54;99627.22;;;15.16;65.67
35655;BME280;21773;50.010;19.972;2023-05-19T05:22:59;99625.94;;;15.18;64.99
35655;BME280;21773;50.010;19.972;2023-05-19T05:26:09;99621.66;;;14.99;65.18
35655;BME280;21773;50.010;19.972;2023-05-19T05:29:16;99619.13;;;14.86;65.33
35655;BME280;21773;50.010;19.972;2023-05-19T05:32:20;99629.00;;;14.69;66.28
35655;BME280;21773;50.010;19.972;2023-05-19T05:35:24;99635.06;;;14.53;66.99
35655;BME280;21773;50.010;19.972;2023-05-19T05:38:29;99635.66;;;14.55;67.38
35655;BME280;21773;50.010;19.972;2023-05-19T05:41:33;99639.28;;;14.49;67.68
35655;BME280;21773;50.010;19.972;2023-05-19T05:44:43;99639.44;;;14.54;67.72
35655;BME280;21773;50.010;19.972;2023-05-19T05:47:47;99640.53;;;14.64;67.34
35655;BME280;21773;50.010;19.972;2023-05-19T05:50:51;99635.94;;;14.65;67.15
35655;BME280;21773;50.010;19.972;2023-05-19T05:54:00;99634.69;;;14.79;67.28
35655;BME280;21773;50.010;19.972;2023-05-19T05:57:10;99625.94;;;14.77;66.84
35655;BME280;21773;50.010;19.972;2023-05-19T06:00:15;99640.28;;;14.96;67.07
35655;BME280;21773;50.010;19.972;2023-05-19T06:03:25;99650.56;;;14.94;66.70
35655;BME280;21773;50.010;19.972;2023-05-19T06:06:32;99648.91;;;14.93;66.61
35655;BME280;21773;50.010;19.972;2023-05-19T06:09:38;99658.22;;;14.85;66.63
35655;BME280;21773;50.010;19.972;2023-05-19T06:12:43;99653.84;;;14.84;66.94
35655;BME280;21773;50.010;19.972;2023-05-19T06:15:46;99652.41;;;14.82;67.16
35655;BME280;21773;50.010;19.972;2023-05-19T06:18:54;99667.22;;;14.97;67.10
35655;BME280;21773;50.010;19.972;2023-05-19T06:21:57;99671.13;;;15.01;66.38
35655;BME280;21773;50.010;19.972;2023-05-19T06:25:03;99663.84;;;15.13;66.70
35655;BME280;21773;50.010;19.972;2023-05-19T06:28:07;99661.97;;;15.26;66.58
35655;BME280;21773;50.010;19.972;2023-05-19T06:31:11;99663.16;;;15.30;65.84
35655;BME280;21773;50.010;19.972;2023-05-19T06:34:20;99670.28;;;15.42;65.98
35655;BME280;21773;50.010;19.972;2023-05-19T06:37:23;99669.72;;;15.52;65.74
35655;BME280;21773;50.010;19.972;2023-05-19T06:40:28;99666.03;;;15.46;65.56
35655;BME280;21773;50.010;19.972;2023-05-19T06:43:32;99679.53;;;15.65;64.89
35655;BME280;21773;50.010;19.972;2023-05-19T06:46:37;99679.81;;;15.63;64.19
35655;BME280;21773;50.010;19.972;2023-05-19T06:49:40;99676.47;;;15.61;64.38
35655;BME280;21773;50.010;19.972;2023-05-19T06:52:43;99684.72;;;15.54;64.35
35655;BME280;21773;50.010;19.972;2023-05-19T06:55:49;99680.03;;;15.62;64.42
35655;BME280;21773;50.010;19.972;2023-05-19T06:59:04;99660.53;;;15.53;64.14
35655;BME280;21773;50.010;19.972;2023-05-19T07:02:10;99672.56;;;15.69;64.75
35655;BME280;21773;50.010;19.972;2023-05-19T07:05:14;99681.69;;;15.86;63.70
35655;BME280;21773;50.010;19.972;2023-05-19T07:08:22;99671.97;;;15.90;63.60
35655;BME280;21773;50.010;19.972;2023-05-19T07:11:27;99665.50;;;15.91;63.87
35655;BME280;21773;50.010;19.972;2023-05-19T07:14:31;99670.69;;;15.92;63.75
35655;BME280;21773;50.010;19.972;2023-05-19T07:17:35;99675.75;;;15.89;63.09
35655;BME280;21773;50.010;19.972;2023-05-19T07:20:38;99669.28;;;16.01;63.17
35655;BME280;21773;50.010;19.972;2023-05-19T07:23:41;99665.84;;;16.06;63.14
35655;BME280;21773;50.010;19.972;2023-05-19T07:26:47;99674.09;;;16.11;62.63
35655;BME280;21773;50.010;19.972;2023-05-19T07:29:50;99667.84;;;16.22;62.69
35655;BME280;21773;50.010;19.972;2023-05-19T07:32:54;99671.34;;;16.34;63.15
35655;BME280;21773;50.010;19.972;2023-05-19T07:35:57;99677.09;;;16.50;62.79
35655;BME280;21773;50.010;19.972;2023-05-19T07:39:00;99666.88;;;16.57;61.82
35655;BME280;21773;50.010;19.972;2023-05-19T07:42:05;99670.69;;;16.67;60.94
35655;BME280;21773;50.010;19.972;2023-05-19T07:45:09;99666.69;;;16.58;60.39
35655;BME280;21773;50.010;19.972;2023-05-19T07:48:13;99657.44;;;16.71;61.13
35655;BME280;21773;50.010;19.972;2023-05-19T07:51:19;99668.66;;;16.74;60.85
35655;BME280;21773;50.010;19.972;2023-05-19T07:54:22;99665.41;;;16.89;60.97
35655;BME280;21773;50.010;19.972;2023-05-19T07:57:27;99672.19;;;17.03;60.40
35655;BME280;21773;50.010;19.972;2023-05-19T08:00:31;99669.63;;;16.97;58.85
35655;BME280;21773;50.010;19.972;2023-05-19T08:03:34;99666.75;;;17.03;59.01
35655;BME280;21773;50.010;19.972;2023-05-19T08:06:38;99664.13;;;17.08;60.20
35655;BME280;21773;50.010;19.972;2023-05-19T08:09:43;99668.31;;;17.16;60.06
35655;BME280;21773;50.010;19.972;2023-05-19T08:12:48;99664.88;;;17.20;59.17
35655;BME280;21773;50.010;19.972;2023-05-19T08:15:51;99659.78;;;17.24;58.55
35655;BME280;21773;50.010;19.972;2023-05-19T08:19:00;99661.66;;;17.23;58.84
35655;BME280;21773;50.010;19.972;2023-05-19T08:22:06;99660.00;;;17.22;58.61
35655;BME280;21773;50.010;19.972;2023-05-19T08:25:09;99663.56;;;17.23;58.91
35655;BME280;21773;50.010;19.972;2023-05-19T08:28:14;99666.44;;;17.16;58.72
35655;BME280;21773;50.010;19.972;2023-05-19T08:31:17;99658.84;;;17.18;58.80
35655;BME280;21773;50.010;19.972;2023-05-19T08:34:21;99660.50;;;17.19;58.87
35655;BME280;21773;50.010;19.972;2023-05-19T08:37:24;99665.97;;;17.19;58.64
35655;BME280;21773;50.010;19.972;2023-05-19T08:40:28;99652.25;;;17.14;58.73
35655;BME280;21773;50.010;19.972;2023-05-19T08:43:34;99661.81;;;17.17;58.94
35655;BME280;21773;50.010;19.972;2023-05-19T08:46:38;99669.50;;;17.20;58.82
35655;BME280;21773;50.010;19.972;2023-05-19T08:49:44;99671.00;;;17.27;58.65
35655;BME280;21773;50.010;19.972;2023-05-19T08:52:51;99677.78;;;17.42;58.15
35655;BME280;21773;50.010;19.972;2023-05-19T08:56:00;99669.44;;;17.31;57.89
35655;BME280;21773;50.010;19.972;2023-05-19T08:59:13;99676.72;;;17.43;58.07
35655;BME280;21773;50.010;19.972;2023-05-19T09:02:17;99676.06;;;17.52;57.84
35655;BME280;21773;50.010;19.972;2023-05-19T09:05:22;99672.34;;;17.58;57.46
35655;BME280;21773;50.010;19.972;2023-05-19T09:08:25;99680.63;;;17.63;57.83
35655;BME280;21773;50.010;19.972;2023-05-19T09:11:28;99676.66;;;17.71;58.15
35655;BME280;21773;50.010;19.972;2023-05-19T09:14:33;99678.06;;;17.73;57.28
35655;BME280;21773;50.010;19.972;2023-05-19T09:17:37;99686.25;;;17.73;56.95
35655;BME280;21773;50.010;19.972;2023-05-19T09:20:42;99686.00;;;17.75;57.48
35655;BME280;21773;50.010;19.972;2023-05-19T09:23:46;99684.31;;;17.74;56.92
35655;BME280;21773;50.010;19.972;2023-05-19T09:26:50;99693.09;;;17.76;56.68
35655;BME280;21773;50.010;19.972;2023-05-19T09:29:57;99675.59;;;17.72;57.14
35655;BME280;21773;50.010;19.972;2023-05-19T09:33:09;99686.41;;;17.84;55.91
35655;BME280;21773;50.010;19.972;2023-05-19T09:36:13;99690.22;;;17.83;55.78
35655;BME280;21773;50.010;19.972;2023-05-19T09:39:18;99688.63;;;17.87;56.51
35655;BME280;21773;50.010;19.972;2023-05-19T09:42:24;99681.00;;;17.89;56.41
35655;BME280;21773;50.010;19.972;2023-05-19T09:45:32;99683.41;;;18.02;55.99
35655;BME280;21773;50.010;19.972;2023-05-19T09:48:36;99682.97;;;18.10;55.33
35655;BME280;21773;50.010;19.972;2023-05-19T09:51:40;99680.31;;;18.15;55.20
35655;BME280;21773;50.010;19.972;2023-05-19T09:54:44;99682.53;;;18.18;55.62
35655;BME280;21773;50.010;19.972;2023-05-19T09:57:48;99677.13;;;18.23;55.95
35655;BME280;21773;50.010;19.972;2023-05-19T10:00:54;99679.31;;;18.21;54.96
35655;BME280;21773;50.010;19.972;2023-05-19T10:03:59;99683.69;;;18.22;54.98
35655;BME280;21773;50.010;19.972;2023-05-19T10:07:05;99677.41;;;18.22;54.85
35655;BME280;21773;50.010;19.972;2023-05-19T10:10:11;99685.09;;;18.25;54.71
35655;BME280;21773;50.010;19.972;2023-05-19T10:13:15;99681.28;;;18.26;54.93
35655;BME280;21773;50.010;19.972;2023-05-19T10:16:20;99680.53;;;18.30;55.27
35655;BME280;21773;50.010;19.972;2023-05-19T10:19:27;99685.91;;;18.25;54.21
35655;BME280;21773;50.010;19.972;2023-05-19T10:22:31;99674.22;;;18.30;54.88
35655;BME280;21773;50.010;19.972;2023-05-19T10:25:35;99677.66;;;18.20;54.46
35655;BME280;21773;50.010;19.972;2023-05-19T10:28:41;99676.38;;;18.28;55.25
35655;BME280;21773;50.010;19.972;2023-05-19T10:31:50;99673.09;;;18.26;55.21
35655;BME280;21773;50.010;19.972;2023-05-19T10:35:16;99675.25;;;18.24;55.10
35655;BME280;21773;50.010;19.972;2023-05-19T10:38:27;99664.91;;;18.26;55.13
35655;BME280;21773;50.010;19.972;2023-05-19T10:41:43;99678.19;;;18.39;55.27
35655;BME280;21773;50.010;19.972;2023-05-19T10:44:54;99670.28;;;18.42;55.34
35655;BME280;21773;50.010;19.972;2023-05-19T10:48:01;99679.66;;;18.46;54.55
35655;BME280;21773;50.010;19.972;2023-05-19T10:51:05;99678.63;;;18.52;54.48
35655;BME280;21773;50.010;19.972;2023-05-19T10:54:13;99664.41;;;18.50;54.02
35655;BME280;21773;50.010;19.972;2023-05-19T10:57:23;99675.22;;;18.62;54.41
35655;BME280;21773;50.010;19.972;2023-05-19T11:00:30;99669.69;;;18.57;54.48
35655;BME280;21773;50.010;19.972;2023-05-19T11:03:43;99679.66;;;18.46;54.14
35655;BME280;21773;50.010;19.972;2023-05-19T11:06:50;99678.75;;;18.41;54.26
35655;BME280;21773;50.010;19.972;2023-05-19T11:09:54;99673.41;;;18.29;54.86
35655;BME280;21773;50.010;19.972;2023-05-19T11:12:57;99674.09;;;18.19;55.23
35655;BME280;21773;50.010;19.972;2023-05-19T11:16:06;99674.59;;;18.16;55.56
35655;BME280;21773;50.010;19.972;2023-05-19T11:19:16;99670.38;;;18.26;55.82
35655;BME280;21773;50.010;19.972;2023-05-19T11:22:22;99671.00;;;18.33;55.97
35655;BME280;21773;50.010;19.972;2023-05-19T11:25:40;99678.81;;;18.46;55.85
35655;BME280;21773;50.010;19.972;2023-05-19T11:28:43;99640.72;;;18.34;54.80
35655;BME280;21773;50.010;19.972;2023-05-19T11:31:47;99671.09;;;18.59;55.52
35655;BME280;21773;50.010;19.972;2023-05-19T11:34:53;99673.97;;;18.70;55.83
35655;BME280;21773;50.010;19.972;2023-05-19T11:37:57;99679.84;;;18.83;56.04
35655;BME280;21773;50.010;19.972;2023-05-19T11:41:02;99678.72;;;18.79;54.91
35655;BME280;21773;50.010;19.972;2023-05-19T11:44:08;99675.34;;;18.72;55.08
35655;BME280;21773;50.010;19.972;2023-05-19T11:47:13;99682.97;;;18.70;54.87
35655;BME280;21773;50.010;19.972;2023-05-19T11:50:18;99680.19;;;18.65;55.56
35655;BME280;21773;50.010;19.972;2023-05-19T11:53:22;99681.84;;;18.66;55.58
35655;BME280;21773;50.010;19.972;2023-05-19T11:56:26;99684.13;;;18.74;55.36
35655;BME280;21773;50.010;19.972;2023-05-19T11:59:30;99684.63;;;18.71;55.03
35655;BME280;21773;50.010;19.972;2023-05-19T12:02:36;99683.34;;;18.57;55.45
35655;BME280;21773;50.010;19.972;2023-05-19T12:05:43;99692.06;;;18.54;55.61
35655;BME280;21773;50.010;19.972;2023-05-19T12:08:49;99686.59;;;18.54;55.27
35655;BME280;21773;50.010;19.972;2023-05-19T12:11:53;99683.53;;;18.50;55.77
35655;BME280;21773;50.010;19.972;2023-05-19T12:14:57;99687.25;;;18.61;55.45
35655;BME280;21773;50.010;19.972;2023-05-19T12:18:01;99684.50;;;18.61;55.27
35655;BME280;21773;50.010;19.972;2023-05-19T12:21:06;99688.06;;;18.62;55.54
35655;BME280;21773;50.010;19.972;2023-05-19T12:24:10;99688.38;;;18.65;55.63
35655;BME280;21773;50.010;19.972;2023-05-19T12:27:17;99685.41;;;18.67;55.21
35655;BME280;21773;50.010;19.972;2023-05-19T12:30:25;99680.63;;;18.79;55.42
35655;BME280;21773;50.010;19.972;2023-05-19T12:33:31;99679.31;;;18.86;54.84
35655;BME280;21773;50.010;19.972;2023-05-19T12:36:40;99679.91;;;18.88;54.84
35655;BME280;21773;50.010;19.972;2023-05-19T12:39:43;99673.78;;;19.03;55.71
35655;BME280;21773;50.010;19.972;2023-05-19T12:42:46;99667.53;;;19.08;54.97
35655;BME280;21773;50.010;19.972;2023-05-19T12:45:53;99662.69;;;19.15;55.13
35655;BME280;21773;50.010;19.972;2023-05-19T12:48:57;99668.13;;;19.10;53.54
35655;BME280;21773;50.010;19.972;2023-05-19T12:52:03;99663.97;;;19.07;53.91
35655;BME280;21773;50.010;19.972;2023-05-19T12:55:14;99664.03;;;19.12;54.35
35655;BME280;21773;50.010;19.972;2023-05-19T12:58:18;99668.34;;;19.08;54.79
35655;BME280;21773;50.010;19.972;2023-05-19T13:01:23;99657.50;;;18.91;54.37
35655;BME280;21773;50.010;19.972;2023-05-19T13:04:27;99665.47;;;18.66;55.35
35655;BME280;21773;50.010;19.972;2023-05-19T13:07:31;99665.41;;;18.61;55.91
35655;BME280;21773;50.010;19.972;2023-05-19T13:10:42;99671.47;;;18.46;56.46
35655;BME280;21773;50.010;19.972;2023-05-19T13:13:45;99659.28;;;18.32;56.63
35655;BME280;21773;50.010;19.972;2023-05-19T13:16:49;99664.09;;;18.08;57.22
35655;BME280;21773;50.010;19.972;2023-05-19T13:19:52;99659.56;;;18.14;58.00
35655;BME280;21773;50.010;19.972;2023-05-19T13:22:57;99648.47;;;18.21;58.14
35655;BME280;21773;50.010;19.972;2023-05-19T13:26:01;99653.75;;;18.27;57.62
35655;BME280;21773;50.010;19.972;2023-05-19T13:29:05;99656.78;;;18.31;56.86
35655;BME280;21773;50.010;19.972;2023-05-19T13:32:09;99651.56;;;18.29;56.75
35655;BME280;21773;50.010;19.972;2023-05-19T13:35:13;99655.78;;;18.37;56.24
35655;BME280;21773;50.010;19.972;2023-05-19T13:38:18;99656.41;;;18.44;56.54
35655;BME280;21773;50.010;19.972;2023-05-19T13:41:22;99650.50;;;18.52;56.19
35655;BME280;21773;50.010;19.972;2023-05-19T13:44:26;99640.53;;;18.41;55.93
35655;BME280;21773;50.010;19.972;2023-05-19T13:47:30;99655.38;;;18.50;56.34
35655;BME280;21773;50.010;19.972;2023-05-19T13:50:33;99647.91;;;18.40;56.47
35655;BME280;21773;50.010;19.972;2023-05-19T13:53:38;99647.25;;;18.33;56.85
35655;BME280;21773;50.010;19.972;2023-05-19T13:56:42;99648.53;;;18.26;56.91
35655;BME280;21773;50.010;19.972;2023-05-19T13:59:47;99652.09;;;18.26;57.45
35655;BME280;21773;50.010;19.972;2023-05-19T14:03:12;99656.47;;;18.27;57.21
35655;BME280;21773;50.010;19.972;2023-05-19T14:06:17;99656.47;;;18.27;57.25
35655;BME280;21773;50.010;19.972;2023-05-19T14:09:21;99657.63;;;18.31;56.75
35655;BME280;21773;50.010;19.972;2023-05-19T14:12:25;99658.81;;;18.40;56.77
35655;BME280;21773;50.010;19.972;2023-05-19T14:15:44;99659.19;;;18.27;56.62
35655;BME280;21773;50.010;19.972;2023-05-19T14:18:47;99656.41;;;18.22;56.69
35655;BME280;21773;50.010;19.972;2023-05-19T14:21:51;99664.38;;;18.29;56.46
35655;BME280;21773;50.010;19.972;2023-05-19T14:24:55;99656.19;;;18.07;56.45
35655;BME280;21773;50.010;19.972;2023-05-19T14:27:59;99655.06;;;18.03;57.23
35655;BME280;21773;50.010;19.972;2023-05-19T14:31:03;99664.88;;;18.04;57.71
35655;BME280;21773;50.010;19.972;2023-05-19T14:34:06;99667.13;;;18.07;56.67
35655;BME280;21773;50.010;19.972;2023-05-19T14:37:10;99648.00;;;18.07;57.34
35655;BME280;21773;50.010;19.972;2023-05-19T14:40:15;99666.28;;;18.06;56.93
35655;BME280;21773;50.010;19.972;2023-05-19T14:43:18;99661.19;;;17.93;57.00
35655;BME280;21773;50.010;19.972;2023-05-19T14:46:21;99664.22;;;17.97;56.76
35655;BME280;21773;50.010;19.972;2023-05-19T14:49:25;99668.09;;;18.01;57.33
35655;BME280;21773;50.010;19.972;2023-05-19T14:52:28;99667.41;;;18.10;56.75
35655;BME280;21773;50.010;19.972;2023-05-19T14:55:33;99667.59;;;18.04;56.24
35655;BME280;21773;50.010;19.972;2023-05-19T14:58:36;99661.19;;;17.93;56.86
35655;BME280;21773;50.010;19.972;2023-05-19T15:01:40;99663.47;;;18.01;56.71
35655;BME280;21773;50.010;19.972;2023-05-19T15:04:43;99678.19;;;18.00;56.75
35655;BME280;21773;50.010;19.972;2023-05-19T15:07:47;99670.06;;;18.05;56.29
35655;BME280;21773;50.010;19.972;2023-05-19T15:10:52;99674.72;;;18.05;57.04
35655;BME280;21773;50.010;19.972;2023-05-19T15:13:55;99664.88;;;18.04;57.03
35655;BME280;21773;50.010;19.972;2023-05-19T15:16:58;99672.56;;;18.07;57.25
35655;BME280;21773;50.010;19.972;2023-05-19T15:20:02;99677.69;;;18.03;56.65
35655;BME280;21773;50.010;19.972;2023-05-19T15:23:05;99667.44;;;17.94;57.46
35655;BME280;21773;50.010;19.972;2023-05-19T15:26:10;99669.28;;;17.88;57.51
35655;BME280;21773;50.010;19.972;2023-05-19T15:29:14;99676.22;;;17.79;58.16
35655;BME280;21773;50.010;19.972;2023-05-19T15:32:18;99673.69;;;17.72;58.26
35655;BME280;21773;50.010;19.972;2023-05-19T15:35:21;99662.94;;;17.49;58.79
35655;BME280;21773;50.010;19.972;2023-05-19T15:38:24;99663.25;;;17.53;59.09
35655;BME280;21773;50.010;19.972;2023-05-19T15:41:32;99666.44;;;17.50;59.37
35655;BME280;21773;50.010;19.972;2023-05-19T15:44:35;99674.06;;;17.48;59.76
35655;BME280;21773;50.010;19.972;2023-05-19T15:47:39;99673.00;;;17.49;59.91
35655;BME280;21773;50.010;19.972;2023-05-19T15:50:42;99668.63;;;17.48;59.95
35655;BME280;21773;50.010;19.972;2023-05-19T15:53:46;99666.13;;;17.46;59.88
35655;BME280;21773;50.010;19.972;2023-05-19T15:56:50;99670.56;;;17.36;59.72
35655;BME280;21773;50.010;19.972;2023-05-19T15:59:54;99671.00;;;17.27;60.19
35655;BME280;21773;50.010;19.972;2023-05-19T16:02:57;99669.09;;;17.28;60.36
35655;BME280;21773;50.010;19.972;2023-05-19T16:06:01;99676.78;;;17.31;60.47
35655;BME280;21773;50.010;19.972;2023-05-19T16:09:04;99679.25;;;17.32;60.22